Cannon Air Force Base Clovis US
ICAO: KCVS
IATA: CVS
Category: Large
Scheduled Services: No

Elevation: 4295 ft
TransAlt. 18000 ft.

Airport Communications:
APP:125.5
ATIS:119.1
CLNC DEL:120.2
DEP:125.5
GND:121.9
PMSV METRO:34.46
COMD POST:38.13
PTD:139.6
TWR:120.4

KCVS Zoom In..

Runways:

(A) RW 04 length 10003 ft width 150 ft
ILS 108.50 / hdg 35

(B) RW 13 length 8196 ft width 150 ft
ILS 110.35 / hdg 125

(C) RW 22 length 10003 ft width 150 ft
ILS 109.70 / hdg 215

(D) RW 31 length 8196 ft width 150 ft
ILS 108.30 / hdg 305

Location; KCVS
Day. 19 / Time. 02.58 Zulu
* Altimeter: 30.04
* Temperature: 30° c. 86°f.
* Wind from: 110° Speed 12 kn.
Dewpoint: 12° c.
Visibility: 10 Statute Miles.
Clouds: Few 9000 ft.
Clouds: Broken 11000 ft.
Clouds: Overcast 16000 ft.

KCVS 190258Z AUTO 11012KT 10SM FEW090 BKN110 OVC160 30/12 A3004 RMK AO2 SLP101 60000 T02980118 52011 $


Wind From 110°
Speed 12 kn.

 
 
jpsmedia.com for Web Design worldairports.se 2018   terms of use